createdAt,value
2018-08-10T00:01:13.669Z,15.86
2018-08-10T00:03:46.692Z,15.86
2018-08-10T00:06:21.041Z,15.85
2018-08-10T00:08:56.761Z,15.88
2018-08-10T00:11:29.385Z,15.89
2018-08-10T00:14:02.712Z,15.91
2018-08-10T00:16:35.652Z,15.92
2018-08-10T00:19:08.363Z,15.92
2018-08-10T00:21:47.773Z,15.91
2018-08-10T00:24:21.782Z,15.93
2018-08-10T00:26:54.469Z,15.95
2018-08-10T00:29:27.908Z,15.97
2018-08-10T00:32:01.096Z,15.99
2018-08-10T00:34:33.929Z,15.99
2018-08-10T00:37:09.865Z,16.01
2018-08-10T00:39:43.273Z,16.01
2018-08-10T00:42:16.834Z,16.00
2018-08-10T00:44:49.753Z,16.00
2018-08-10T00:47:23.125Z,16.02
2018-08-10T00:49:55.937Z,16.03
2018-08-10T00:52:30.162Z,16.03
2018-08-10T00:55:03.465Z,16.00
2018-08-10T00:57:36.138Z,15.96
2018-08-10T01:00:20.816Z,15.95
2018-08-10T01:02:54.803Z,15.93
2018-08-10T01:05:27.372Z,15.94
2018-08-10T01:08:02.657Z,15.93
2018-08-10T01:10:35.808Z,15.93
2018-08-10T01:13:08.427Z,15.93
2018-08-10T01:15:41.756Z,15.93
2018-08-10T01:18:14.333Z,15.91
2018-08-10T01:20:47.141Z,15.88
2018-08-10T01:23:20.278Z,15.84
2018-08-10T01:25:52.896Z,15.84
2018-08-10T01:28:25.692Z,15.83
2018-08-10T01:30:59.897Z,15.79
2018-08-10T01:33:32.524Z,15.77
2018-08-10T01:36:05.765Z,15.75
2018-08-10T01:38:39.256Z,15.71
2018-08-10T01:41:11.964Z,15.67
2018-08-10T01:43:44.553Z,15.62
2018-08-10T01:46:18.328Z,15.60
2018-08-10T01:48:50.957Z,15.56
2018-08-10T01:51:23.556Z,15.50
2018-08-10T01:53:56.544Z,15.45
2018-08-10T01:56:30.195Z,15.41
2018-08-10T01:59:03.185Z,15.36
2018-08-10T02:01:37.086Z,15.32
2018-08-10T02:04:10.488Z,15.26
2018-08-10T02:06:43.131Z,15.23
2018-08-10T02:09:17.062Z,15.20
2018-08-10T02:11:55.399Z,15.18
2018-08-10T02:14:27.799Z,15.16
2018-08-10T02:17:00.580Z,15.13
2018-08-10T02:19:33.941Z,15.13
2018-08-10T02:22:06.455Z,15.11
2018-08-10T02:24:41.417Z,15.08
2018-08-10T02:27:14.057Z,15.04
2018-08-10T02:29:47.817Z,15.03
2018-08-10T02:32:20.596Z,15.03
2018-08-10T02:34:54.860Z,15.02
2018-08-10T02:37:27.474Z,15.02
2018-08-10T02:40:00.429Z,15.02
2018-08-10T02:42:33.092Z,15.04
2018-08-10T02:45:07.559Z,15.06
2018-08-10T02:47:40.382Z,15.07
2018-08-10T02:50:14.833Z,15.07
2018-08-10T02:52:47.574Z,15.05
2018-08-10T02:55:20.860Z,15.04
2018-08-10T02:57:53.386Z,15.05
2018-08-10T03:00:26.401Z,15.04
2018-08-10T03:02:59.548Z,15.09
2018-08-10T03:05:32.065Z,15.15
2018-08-10T03:08:04.516Z,15.17
2018-08-10T03:10:37.439Z,15.13
2018-08-10T03:13:10.030Z,15.03
2018-08-10T03:15:42.604Z,14.96
2018-08-10T03:18:15.369Z,14.92
2018-08-10T03:20:48.076Z,14.87
2018-08-10T03:23:20.653Z,14.85
2018-08-10T03:25:54.738Z,14.84
2018-08-10T03:28:27.660Z,14.83
2018-08-10T03:31:01.357Z,14.81
2018-08-10T03:33:34.177Z,14.77
2018-08-10T03:36:07.259Z,14.74
2018-08-10T03:38:41.197Z,14.72
2018-08-10T03:41:14.422Z,14.68
2018-08-10T03:43:46.928Z,14.65
2018-08-10T03:46:20.397Z,14.60
2018-08-10T03:48:54.247Z,14.55
2018-08-10T03:51:26.981Z,14.53
2018-08-10T03:53:59.520Z,14.48
2018-08-10T03:56:33.471Z,14.40
2018-08-10T03:59:05.856Z,14.32
2018-08-10T04:01:38.487Z,14.27
2018-08-10T04:04:11.920Z,14.24
2018-08-10T04:06:44.446Z,14.26
2018-08-10T04:09:17.297Z,14.25
2018-08-10T04:11:50.242Z,14.26
2018-08-10T04:14:22.818Z,14.24
2018-08-10T04:16:55.365Z,14.20
2018-08-10T04:19:31.655Z,14.12
2018-08-10T04:22:06.062Z,14.02
2018-08-10T04:24:53.997Z,13.91
2018-08-10T04:27:26.979Z,13.89
2018-08-10T04:29:59.471Z,13.86
2018-08-10T04:32:32.996Z,13.82
2018-08-10T04:35:09.096Z,13.80
2018-08-10T04:37:43.211Z,13.77
2018-08-10T04:40:18.736Z,13.78
2018-08-10T04:42:51.660Z,13.77
2018-08-10T04:45:27.707Z,13.80
2018-08-10T04:48:03.665Z,13.83
2018-08-10T04:50:37.561Z,13.82
2018-08-10T04:53:11.456Z,13.80
2018-08-10T04:55:43.925Z,13.75
2018-08-10T04:58:17.645Z,13.76
2018-08-10T05:00:51.133Z,13.81
2018-08-10T05:03:23.821Z,13.86
2018-08-10T05:05:57.938Z,13.97
2018-08-10T05:08:31.620Z,14.17
2018-08-10T05:11:04.368Z,14.34
2018-08-10T05:13:36.888Z,14.50
2018-08-10T05:16:10.915Z,14.63
2018-08-10T05:18:44.699Z,14.76
2018-08-10T05:21:17.856Z,14.86
2018-08-10T05:23:55.071Z,14.95
2018-08-10T05:26:28.857Z,14.99
2018-08-10T05:29:02.681Z,15.02
2018-08-10T05:31:38.412Z,15.08
2018-08-10T05:34:13.641Z,15.12
2018-08-10T05:36:50.247Z,15.04
2018-08-10T05:39:24.442Z,14.96
2018-08-10T05:41:59.253Z,14.90
2018-08-10T05:44:39.244Z,14.87
2018-08-10T05:47:12.639Z,14.83
2018-08-10T05:49:46.339Z,14.80
2018-08-10T05:52:25.955Z,14.77
2018-08-10T05:54:58.677Z,14.74
2018-08-10T05:57:31.592Z,14.73
2018-08-10T06:00:06.944Z,14.77
2018-08-10T06:02:40.087Z,14.82
2018-08-10T06:05:18.258Z,14.87
2018-08-10T06:07:52.953Z,14.97
2018-08-10T06:10:25.869Z,15.07
2018-08-10T06:12:59.874Z,15.13
2018-08-10T06:15:34.846Z,15.16
2018-08-10T06:18:10.070Z,15.19
2018-08-10T06:20:43.957Z,15.20
2018-08-10T06:23:16.324Z,15.23
2018-08-10T06:25:49.334Z,15.28
2018-08-10T06:28:21.872Z,15.36
2018-08-10T06:30:54.477Z,15.39
2018-08-10T06:33:27.349Z,15.42
2018-08-10T06:36:00.947Z,15.46
2018-08-10T06:38:33.575Z,15.55
2018-08-10T06:41:06.393Z,15.73
2018-08-10T06:43:39.912Z,15.94
2018-08-10T06:46:12.487Z,16.17
2018-08-10T06:48:49.805Z,16.46
2018-08-10T06:51:26.209Z,16.66
2018-08-10T06:53:58.789Z,16.92
2018-08-10T06:56:31.496Z,17.16
2018-08-10T06:59:04.808Z,17.17
2018-08-10T07:01:39.588Z,17.19
2018-08-10T07:04:11.964Z,17.40
2018-08-10T07:06:46.804Z,17.63
2018-08-10T07:09:21.421Z,17.85
2018-08-10T07:11:55.533Z,18.01
2018-08-10T07:14:29.942Z,18.03
2018-08-10T07:17:03.325Z,17.97
2018-08-10T07:19:36.308Z,17.96
2018-08-10T07:22:10.064Z,18.11
2018-08-10T07:24:43.455Z,18.27
2018-08-10T07:27:22.242Z,18.44
2018-08-10T07:29:55.664Z,18.72
2018-08-10T07:32:31.896Z,19.00
2018-08-10T07:35:05.432Z,19.20
2018-08-10T07:37:43.662Z,19.03
2018-08-10T07:40:17.929Z,19.24
2018-08-10T07:42:50.876Z,19.20
2018-08-10T07:45:24.813Z,18.98
2018-08-10T07:47:58.440Z,19.02
2018-08-10T07:50:32.354Z,19.45
2018-08-10T07:53:04.994Z,19.65
2018-08-10T07:55:38.459Z,19.72
2018-08-10T07:58:11.921Z,19.75
2018-08-10T08:00:44.763Z,20.21
2018-08-10T08:03:19.157Z,20.54
2018-08-10T08:05:52.143Z,20.95
2018-08-10T08:08:25.894Z,21.29
2018-08-10T08:11:01.080Z,20.72
2018-08-10T08:13:33.812Z,19.77
2018-08-10T08:16:08.999Z,19.23
2018-08-10T08:18:41.421Z,18.90
2018-08-10T08:21:14.461Z,19.25
2018-08-10T08:23:48.383Z,19.15
2018-08-10T08:26:21.531Z,18.89
2018-08-10T08:28:54.320Z,18.66
2018-08-10T08:31:29.332Z,18.54
2018-08-10T08:34:07.659Z,18.62
2018-08-10T08:36:42.428Z,18.90
2018-08-10T08:39:56.048Z,19.01
2018-08-10T08:42:28.593Z,18.78
2018-08-10T08:45:44.713Z,18.72
2018-08-10T08:48:19.346Z,18.84
2018-08-10T08:50:55.516Z,18.98
2018-08-10T08:53:28.633Z,18.98
2018-08-10T08:56:19.686Z,18.86
2018-08-10T08:58:53.070Z,19.01
2018-08-10T09:01:26.310Z,19.73
2018-08-10T09:05:14.873Z,20.45
2018-08-10T09:07:48.209Z,21.00
2018-08-10T09:10:21.446Z,21.24
2018-08-10T09:12:56.421Z,21.18
2018-08-10T09:15:31.736Z,21.24
2018-08-10T09:18:06.381Z,21.47
2018-08-10T09:20:40.838Z,21.99
2018-08-10T09:23:16.384Z,22.55
2018-08-10T09:25:50.599Z,22.88
2018-08-10T09:28:25.044Z,22.92
2018-08-10T09:31:01.579Z,22.73
2018-08-10T09:33:37.748Z,22.53
2018-08-10T09:36:13.854Z,21.94
2018-08-10T09:38:46.757Z,21.27
2018-08-10T09:41:21.719Z,20.94
2018-08-10T09:43:55.604Z,20.73
2018-08-10T09:46:28.217Z,21.19
2018-08-10T09:49:06.265Z,21.92
2018-08-10T09:51:40.710Z,22.24
2018-08-10T09:54:15.345Z,22.66
2018-08-10T09:56:48.012Z,21.96
2018-08-10T09:59:20.567Z,21.25
2018-08-10T10:01:58.509Z,20.99
2018-08-10T10:04:31.787Z,21.25
2018-08-10T10:07:06.473Z,21.50
2018-08-10T10:09:40.475Z,21.66
2018-08-10T10:12:14.667Z,21.82
2018-08-10T10:14:49.700Z,21.57
2018-08-10T10:17:25.390Z,21.51
2018-08-10T10:20:00.134Z,21.18
2018-08-10T10:22:33.729Z,20.69
2018-08-10T10:25:07.728Z,20.55
2018-08-10T10:27:41.358Z,20.42
2018-08-10T10:30:29.893Z,20.66
2018-08-10T10:33:21.753Z,21.33
2018-08-10T10:36:00.890Z,22.04
2018-08-10T10:38:37.073Z,22.52
2018-08-10T10:41:12.609Z,22.54
2018-08-10T10:43:47.359Z,22.78
2018-08-10T10:46:20.670Z,22.77
2018-08-10T10:48:56.237Z,23.09
2018-08-10T10:51:30.268Z,23.16
2018-08-10T10:54:05.752Z,23.14
2018-08-10T10:56:39.935Z,23.18
2018-08-10T10:59:17.533Z,23.34
2018-08-10T11:01:52.032Z,23.72
2018-08-10T11:04:27.536Z,24.07
2018-08-10T11:07:02.878Z,24.03
2018-08-10T11:09:42.048Z,24.23
2018-08-10T11:12:16.300Z,24.12
2018-08-10T11:14:51.821Z,24.13
2018-08-10T11:17:46.459Z,23.97
2018-08-10T11:20:39.803Z,24.04
2018-08-10T11:23:13.818Z,24.30
2018-08-10T11:25:54.678Z,23.83
2018-08-10T11:28:33.786Z,23.21
2018-08-10T11:31:07.418Z,23.27
2018-08-10T11:33:42.774Z,23.72
2018-08-10T11:36:30.085Z,24.17
2018-08-10T11:39:10.268Z,24.17
2018-08-10T11:41:47.992Z,24.24
2018-08-10T11:44:21.824Z,24.25
2018-08-10T11:46:58.134Z,24.39
2018-08-10T11:49:31.589Z,24.85
2018-08-10T11:52:18.496Z,24.16
2018-08-10T11:54:57.473Z,23.42
2018-08-10T11:57:33.362Z,23.45
2018-08-10T12:00:10.949Z,23.83
2018-08-10T12:02:47.319Z,24.34
2018-08-10T12:05:21.981Z,24.62
2018-08-10T12:07:55.545Z,24.23
2018-08-10T12:10:29.093Z,24.13
2018-08-10T12:13:03.610Z,24.43
2018-08-10T12:15:36.563Z,24.77
2018-08-10T12:18:11.244Z,24.37
2018-08-10T12:20:45.175Z,24.12
2018-08-10T12:23:20.232Z,24.32
2018-08-10T12:25:53.584Z,24.75
2018-08-10T12:28:27.128Z,24.54
2018-08-10T12:31:00.321Z,24.25
2018-08-10T12:33:35.061Z,23.97
2018-08-10T12:36:12.021Z,24.14
2018-08-10T12:38:50.044Z,24.02
2018-08-10T12:41:25.012Z,23.71
2018-08-10T12:43:57.653Z,23.56
2018-08-10T12:46:32.486Z,23.50
2018-08-10T12:49:05.972Z,23.92
2018-08-10T12:51:40.369Z,24.35
2018-08-10T12:54:16.742Z,24.78
2018-08-10T12:56:51.522Z,24.19
2018-08-10T12:59:25.411Z,24.13
2018-08-10T13:01:59.538Z,24.78
2018-08-10T13:04:33.224Z,25.05
2018-08-10T13:07:07.445Z,24.72
2018-08-10T13:09:40.863Z,24.86
2018-08-10T13:12:15.141Z,24.85
2018-08-10T13:14:50.596Z,24.99
2018-08-10T13:17:24.331Z,25.06
2018-08-10T13:19:57.759Z,25.12
2018-08-10T13:22:33.488Z,25.04
2018-08-10T13:25:09.108Z,24.60
2018-08-10T13:27:42.851Z,23.86
2018-08-10T13:30:18.485Z,23.69
2018-08-10T13:32:53.913Z,24.28
2018-08-10T13:35:32.297Z,24.71
2018-08-10T13:38:07.933Z,24.74
2018-08-10T13:40:48.508Z,24.72
2018-08-10T13:43:22.124Z,24.76
2018-08-10T13:45:57.700Z,24.74
2018-08-10T13:48:33.741Z,24.70
2018-08-10T13:51:18.222Z,24.95
2018-08-10T13:54:04.424Z,25.12
2018-08-10T13:56:39.902Z,25.42
2018-08-10T13:59:22.510Z,25.06
2018-08-10T14:02:01.298Z,24.80
2018-08-10T14:04:36.960Z,25.21
2018-08-10T14:07:12.330Z,25.34
2018-08-10T14:09:58.329Z,25.48
2018-08-10T14:12:31.585Z,26.05
2018-08-10T14:15:06.741Z,25.77
2018-08-10T14:17:44.090Z,25.71
2018-08-10T14:20:19.614Z,25.61
2018-08-10T14:22:54.413Z,25.48
2018-08-10T14:25:31.563Z,25.52
2018-08-10T14:28:05.526Z,25.42
2018-08-10T14:30:39.737Z,25.75
2018-08-10T14:33:17.054Z,25.94
2018-08-10T14:35:52.551Z,25.96
2018-08-10T14:38:25.806Z,25.83
2018-08-10T14:40:59.887Z,25.89
2018-08-10T14:43:33.913Z,25.55
2018-08-10T14:46:07.370Z,25.13
2018-08-10T14:48:41.219Z,24.61
2018-08-10T14:51:13.988Z,24.23
2018-08-10T14:53:48.132Z,24.15
2018-08-10T14:56:23.632Z,24.13
2018-08-10T14:59:00.630Z,24.04
2018-08-10T15:01:36.267Z,23.81
2018-08-10T15:04:11.301Z,23.79
2018-08-10T15:06:44.697Z,24.14
2018-08-10T15:09:17.295Z,24.78
2018-08-10T15:11:50.057Z,25.35
2018-08-10T15:14:23.060Z,25.32
2018-08-10T15:16:57.414Z,24.78
2018-08-10T15:19:29.946Z,24.36
2018-08-10T15:22:04.635Z,24.20
2018-08-10T15:24:38.189Z,24.19
2018-08-10T15:27:20.539Z,24.01
2018-08-10T15:29:54.152Z,23.78
2018-08-10T15:32:29.635Z,23.61
2018-08-10T15:35:03.650Z,23.41
2018-08-10T15:37:36.473Z,23.30
2018-08-10T15:40:14.788Z,23.80
2018-08-10T15:42:51.536Z,24.53
2018-08-10T15:45:29.107Z,25.06
2018-08-10T15:48:06.426Z,25.55
2018-08-10T15:50:53.488Z,26.06
2018-08-10T15:53:29.542Z,25.83
2018-08-10T15:56:10.283Z,25.50
2018-08-10T15:58:44.396Z,25.31
2018-08-10T16:01:17.509Z,24.96
2018-08-10T16:03:53.296Z,25.08
2018-08-10T16:06:26.766Z,25.30
2018-08-10T16:09:09.380Z,25.69
2018-08-10T16:11:45.164Z,25.95
2018-08-10T16:14:18.414Z,26.00
2018-08-10T16:16:51.986Z,25.94
2018-08-10T16:19:25.904Z,25.55
2018-08-10T16:22:00.732Z,25.35
2018-08-10T16:24:35.444Z,25.30
2018-08-10T16:27:08.530Z,25.21
2018-08-10T16:29:42.055Z,25.21
2018-08-10T16:32:17.160Z,24.93
2018-08-10T16:34:54.497Z,24.89
2018-08-10T16:37:30.716Z,24.88
2018-08-10T16:40:09.044Z,24.89
2018-08-10T16:42:42.427Z,24.77
2018-08-10T16:45:19.038Z,24.73
2018-08-10T16:47:52.270Z,24.83
2018-08-10T16:50:26.565Z,24.77
2018-08-10T16:53:03.352Z,24.62
2018-08-10T16:55:37.272Z,24.78
2018-08-10T16:58:13.452Z,24.80
2018-08-10T17:00:48.158Z,24.85
2018-08-10T17:03:25.355Z,24.90
2018-08-10T17:06:01.230Z,25.01
2018-08-10T17:08:36.838Z,25.12
2018-08-10T17:11:12.654Z,25.07
2018-08-10T17:13:46.296Z,24.75
2018-08-10T17:16:23.804Z,24.67
2018-08-10T17:18:56.363Z,24.56
2018-08-10T17:21:34.124Z,24.52
2018-08-10T17:24:08.697Z,24.44
2018-08-10T17:26:43.537Z,24.16
2018-08-10T17:29:17.095Z,23.84
2018-08-10T17:31:50.219Z,23.56
2018-08-10T17:34:24.517Z,23.30
2018-08-10T17:36:57.875Z,23.14
2018-08-10T17:39:30.348Z,23.01
2018-08-10T17:42:03.940Z,22.92
2018-08-10T17:44:39.312Z,22.83
2018-08-10T17:47:13.251Z,22.78
2018-08-10T17:49:47.204Z,22.82
2018-08-10T17:52:21.951Z,22.82
2018-08-10T17:54:56.639Z,22.75
2018-08-10T17:57:31.292Z,22.62
2018-08-10T18:00:16.567Z,22.54
2018-08-10T18:02:51.793Z,22.48
2018-08-10T18:05:26.079Z,22.39
2018-08-10T18:08:02.520Z,22.27
2018-08-10T18:10:39.400Z,22.26
2018-08-10T18:13:17.012Z,22.32
2018-08-10T18:15:51.686Z,22.23
2018-08-10T18:18:28.144Z,22.10
2018-08-10T18:21:04.691Z,22.04
2018-08-10T18:23:39.023Z,22.06
2018-08-10T18:26:14.329Z,22.07
2018-08-10T18:28:52.128Z,22.03
2018-08-10T18:31:27.047Z,21.96
2018-08-10T18:34:01.616Z,21.86
2018-08-10T18:36:36.097Z,21.79
2018-08-10T18:39:35.564Z,21.69
2018-08-10T18:42:09.066Z,21.62
2018-08-10T18:44:42.082Z,21.55
2018-08-10T18:47:14.961Z,21.44
2018-08-10T18:49:56.538Z,21.29
2018-08-10T18:52:33.744Z,21.19
2018-08-10T18:55:18.984Z,21.05
2018-08-10T18:57:53.076Z,20.94
2018-08-10T19:00:32.227Z,20.84
2018-08-10T19:03:05.596Z,20.76
2018-08-10T19:05:39.594Z,20.70
2018-08-10T19:08:13.253Z,20.58
2018-08-10T19:10:49.246Z,20.45
2018-08-10T19:13:24.900Z,20.32
2018-08-10T19:15:59.352Z,20.28
2018-08-10T19:18:33.441Z,20.32
2018-08-10T19:21:06.595Z,20.25
2018-08-10T19:23:42.260Z,20.19
2018-08-10T19:26:16.974Z,20.16
2018-08-10T19:28:50.723Z,20.09
2018-08-10T19:31:28.651Z,20.02
2018-08-10T19:34:03.139Z,19.93
2018-08-10T19:36:37.296Z,19.90
2018-08-10T19:39:20.072Z,19.86
2018-08-10T19:41:53.989Z,19.85
2018-08-10T19:44:26.836Z,19.81
2018-08-10T19:47:01.693Z,19.81
2018-08-10T19:49:35.283Z,19.72
2018-08-10T19:52:08.697Z,19.66
2018-08-10T19:54:43.815Z,19.64
2018-08-10T19:57:17.821Z,19.56
2018-08-10T19:59:53.923Z,19.47
2018-08-10T20:02:30.071Z,19.47
2018-08-10T20:05:07.883Z,19.47
2018-08-10T20:07:50.509Z,19.45
2018-08-10T20:10:25.628Z,19.48
2018-08-10T20:13:02.993Z,19.49
2018-08-10T20:15:39.853Z,19.51
2018-08-10T20:18:13.441Z,19.58
2018-08-10T20:20:47.605Z,19.56
2018-08-10T20:23:21.179Z,19.56
2018-08-10T20:25:54.909Z,19.55
2018-08-10T20:28:28.668Z,19.48
2018-08-10T20:31:02.192Z,19.43
2018-08-10T20:33:34.713Z,19.40
2018-08-10T20:36:11.608Z,19.43
2018-08-10T20:38:47.425Z,19.38
2018-08-10T20:41:21.752Z,19.41
2018-08-10T20:43:59.276Z,19.45
2018-08-10T20:46:37.400Z,19.44
2018-08-10T20:49:15.594Z,19.41
2018-08-10T20:51:51.148Z,19.40
2018-08-10T20:55:04.820Z,19.38
2018-08-10T20:57:44.814Z,19.31
2018-08-10T21:00:17.254Z,19.23
2018-08-10T21:02:49.849Z,19.18
2018-08-10T21:05:24.961Z,19.14
2018-08-10T21:08:00.422Z,19.11
2018-08-10T21:10:35.702Z,19.02
2018-08-10T21:13:10.527Z,18.98
2018-08-10T21:15:43.531Z,18.96
2018-08-10T21:18:17.327Z,18.91
2018-08-10T21:20:50.936Z,18.85
2018-08-10T21:23:25.044Z,18.87
2018-08-10T21:25:59.618Z,18.86
2018-08-10T21:28:33.626Z,18.87
2018-08-10T21:31:07.045Z,18.86
2018-08-10T21:33:41.450Z,18.85
2018-08-10T21:36:18.726Z,18.88
2018-08-10T21:38:55.528Z,18.82
2018-08-10T21:41:27.972Z,18.79
2018-08-10T21:44:01.514Z,18.81
2018-08-10T21:46:38.680Z,18.81
2018-08-10T21:49:11.925Z,18.72
2018-08-10T21:51:46.477Z,18.72
2018-08-10T21:54:19.396Z,18.69
2018-08-10T21:56:55.881Z,18.57
2018-08-10T21:59:37.703Z,18.53
2018-08-10T22:02:17.157Z,18.45
2018-08-10T22:04:49.838Z,18.39
2018-08-10T22:07:23.356Z,18.32
2018-08-10T22:10:04.868Z,18.19
2018-08-10T22:12:43.461Z,18.09
2018-08-10T22:15:22.212Z,18.00
2018-08-10T22:18:02.552Z,17.96
2018-08-10T22:20:35.955Z,17.90
2018-08-10T22:23:09.175Z,17.86
2018-08-10T22:25:47.584Z,17.83
2018-08-10T22:28:20.471Z,17.78
2018-08-10T22:30:54.237Z,17.79
2018-08-10T22:33:27.341Z,17.77
2018-08-10T22:36:01.783Z,17.77
2018-08-10T22:38:36.553Z,17.73
2018-08-10T22:41:09.359Z,17.67
2018-08-10T22:43:43.265Z,17.71
2018-08-10T22:46:16.913Z,17.71
2018-08-10T22:48:49.529Z,17.77
2018-08-10T22:51:23.080Z,17.77
2018-08-10T22:53:57.316Z,17.79
2018-08-10T22:56:31.481Z,17.77
2018-08-10T22:59:04.968Z,17.79
2018-08-10T23:01:39.314Z,17.78
2018-08-10T23:04:12.079Z,17.72
2018-08-10T23:06:47.477Z,17.74
2018-08-10T23:09:21.758Z,17.74
2018-08-10T23:11:56.157Z,17.68
2018-08-10T23:14:29.875Z,17.72
2018-08-10T23:17:05.213Z,17.74
2018-08-10T23:19:38.752Z,17.73
2018-08-10T23:22:11.448Z,17.76
2018-08-10T23:24:49.510Z,17.72
2018-08-10T23:27:23.084Z,17.70
2018-08-10T23:29:56.177Z,17.74
2018-08-10T23:32:30.864Z,17.73
2018-08-10T23:35:04.208Z,17.77
2018-08-10T23:37:37.396Z,17.84
2018-08-10T23:40:14.690Z,17.86
2018-08-10T23:42:47.778Z,17.87
2018-08-10T23:45:22.829Z,17.90
2018-08-10T23:47:59.855Z,17.89
2018-08-10T23:50:36.669Z,17.88
2018-08-10T23:53:10.428Z,17.91
2018-08-10T23:55:44.541Z,17.92
2018-08-10T23:58:19.859Z,17.87
